Time;durP1;ratioP1;P1;durP2;ratioP2;P2;SDS_P1;SDS_P2;PMS_P1;PMS_P2;Temp;Humidity;BMP_temperature;BMP_pressure;BME280_temperature;BME280_humidity;BME280_pressure;Samples;Min_cycle;Max_cycle;Signal;HPM_P1;HPM_P2
2021/06/30 00:02:20;;;;;;;5.17;4.03;;;;;;;19.06;100.00;100224.34;1705663;82;21030;-48
2021/06/30 00:04:46;;;;;;;6.90;4.22;;;;;;;19.02;100.00;100227.34;1724346;81;20996;-47
2021/06/30 00:07:13;;;;;;;6.90;3.77;;;;;;;19.00;100.00;100229.34;1715318;82;21378;-44
2021/06/30 00:09:42;;;;;;;4.37;3.42;;;;;;;18.97;100.00;100229.61;1721003;81;20989;-47
2021/06/30 00:12:11;;;;;;;3.90;3.33;;;;;;;18.98;100.00;100224.58;1742221;80;20944;-46
2021/06/30 00:14:39;;;;;;;10.55;4.87;;;;;;;18.99;100.00;100224.92;1738314;80;20977;-45
2021/06/30 00:17:08;;;;;;;4.53;4.10;;;;;;;18.99;100.00;100230.32;1742662;80;20907;-43
2021/06/30 00:19:35;;;;;;;3.98;3.60;;;;;;;18.98;100.00;100243.49;1730901;81;20949;-46
2021/06/30 00:22:02;;;;;;;4.20;3.80;;;;;;;18.95;100.00;100241.09;1713856;82;20961;-46
2021/06/30 00:24:29;;;;;;;5.00;4.22;;;;;;;18.95;100.00;100248.33;1722478;81;20957;-45
2021/06/30 00:26:56;;;;;;;6.53;4.60;;;;;;;18.96;100.00;100254.09;1720272;82;20958;-45
2021/06/30 00:29:23;;;;;;;5.47;4.70;;;;;;;18.96;100.00;100257.64;1721324;81;21025;-46
2021/06/30 00:31:49;;;;;;;6.85;4.00;;;;;;;18.94;100.00;100260.98;1715980;82;20969;-45
2021/06/30 00:34:16;;;;;;;4.83;3.77;;;;;;;18.90;100.00;100265.48;1720613;82;21018;-45
2021/06/30 00:36:46;;;;;;;6.30;4.30;;;;;;;18.86;100.00;100264.09;1732955;80;21007;-45
2021/06/30 00:39:15;;;;;;;7.97;5.92;;;;;;;18.82;100.00;100262.17;1737358;80;20960;-46
2021/06/30 00:41:44;;;;;;;4.53;4.12;;;;;;;18.81;100.00;100259.13;1728557;81;20995;-46
2021/06/30 00:44:11;;;;;;;8.18;3.60;;;;;;;18.80;100.00;100260.98;1713081;82;21038;-45
2021/06/30 00:46:37;;;;;;;5.08;4.58;;;;;;;18.77;100.00;100260.41;1703672;82;21006;-44
2021/06/30 00:49:06;;;;;;;5.20;3.98;;;;;;;18.76;100.00;100258.73;1709573;82;21487;-46
2021/06/30 00:51:33;;;;;;;5.10;3.42;;;;;;;18.75;100.00;100261.94;1716257;82;20985;-47
2021/06/30 00:54:01;;;;;;;4.42;4.00;;;;;;;18.77;100.00;100258.59;1724563;81;21060;-45
2021/06/30 00:56:28;;;;;;;4.22;3.65;;;;;;;18.77;100.00;100251.84;1715024;82;20946;-45
2021/06/30 00:58:57;;;;;;;7.42;5.85;;;;;;;18.78;100.00;100250.83;1722463;81;20992;-47
2021/06/30 01:01:25;;;;;;;5.45;4.00;;;;;;;18.78;100.00;100252.17;1717931;81;21030;-47
2021/06/30 01:03:52;;;;;;;5.90;4.40;;;;;;;18.79;100.00;100256.56;1703040;82;21302;-44
2021/06/30 01:06:18;;;;;;;4.35;3.95;;;;;;;18.77;100.00;100258.59;1703009;82;20977;-45
2021/06/30 01:08:47;;;;;;;4.00;3.60;;;;;;;18.75;100.00;100255.18;1704466;82;21320;-44
2021/06/30 01:11:14;;;;;;;3.75;3.45;;;;;;;18.75;100.00;100252.48;1706937;82;21001;-43
2021/06/30 01:13:41;;;;;;;4.58;3.30;;;;;;;18.75;100.00;100253.83;1713902;82;20982;-45
2021/06/30 01:16:09;;;;;;;4.17;3.52;;;;;;;18.74;100.00;100241.27;1705195;82;20914;-46
2021/06/30 01:18:37;;;;;;;4.58;3.52;;;;;;;18.76;100.00;100245.22;1694225;82;20962;-46
2021/06/30 01:21:07;;;;;;;4.10;3.55;;;;;;;18.74;100.00;100245.33;1701326;82;20965;-47
2021/06/30 01:23:34;;;;;;;5.35;4.70;;;;;;;18.69;100.00;100234.63;1703380;82;21029;-46
2021/06/30 01:26:01;;;;;;;6.42;4.00;;;;;;;18.64;100.00;100235.06;1703397;82;20985;-47
2021/06/30 01:28:27;;;;;;;5.60;3.90;;;;;;;18.59;100.00;100238.70;1701894;82;21069;-46
2021/06/30 01:30:54;;;;;;;4.78;4.28;;;;;;;18.59;100.00;100233.30;1705280;82;21504;-45
2021/06/30 01:33:21;;;;;;;4.45;3.95;;;;;;;18.58;100.00;100234.31;1700657;82;21037;-46
2021/06/30 01:35:49;;;;;;;5.30;4.78;;;;;;;18.56;100.00;100235.80;1702553;82;21591;-45
2021/06/30 01:38:22;;;;;;;7.35;4.15;;;;;;;18.57;100.00;100231.25;1706641;82;21017;-45
2021/06/30 01:40:50;;;;;;;4.65;4.03;;;;;;;18.56;100.00;100239.84;1701690;82;20997;-45
2021/06/30 01:43:17;;;;;;;4.67;4.05;;;;;;;18.57;100.00;100240.22;1706765;82;21377;-44
2021/06/30 01:45:45;;;;;;;4.25;3.60;;;;;;;18.60;100.00;100238.57;1704805;82;20926;-47
2021/06/30 01:48:11;;;;;;;6.15;3.65;;;;;;;18.64;100.00;100249.06;1700162;82;20966;-47
2021/06/30 01:50:38;;;;;;;4.33;3.92;;;;;;;18.63;100.00;100248.22;1707037;82;20950;-47
2021/06/30 01:53:05;;;;;;;4.20;3.80;;;;;;;18.63;100.00;100250.92;1697203;82;20986;-47
2021/06/30 01:55:32;;;;;;;6.08;4.70;;;;;;;18.63;100.00;100243.33;1692404;82;20957;-44
2021/06/30 01:58:00;;;;;;;8.45;6.25;;;;;;;18.65;100.00;100244.00;1691092;82;21436;-45
2021/06/30 02:00:26;;;;;;;8.85;7.72;;;;;;;18.66;100.00;100246.58;1705534;82;20981;-44
2021/06/30 02:02:53;;;;;;;7.25;5.50;;;;;;;18.64;100.00;100249.91;1703308;82;21886;-43
2021/06/30 02:05:21;;;;;;;5.28;4.78;;;;;;;18.62;100.00;100255.95;1687049;83;21039;-44
2021/06/30 02:07:53;;;;;;;7.92;4.42;;;;;;;18.55;100.00;100261.11;1681900;83;20959;-46
2021/06/30 02:10:21;;;;;;;4.60;4.20;;;;;;;18.52;100.00;100261.88;1696928;83;21434;-47
2021/06/30 02:12:48;;;;;;;5.03;4.00;;;;;;;18.51;100.00;100265.09;1684462;82;21010;-49
2021/06/30 02:15:23;;;;;;;5.00;4.15;;;;;;;18.51;100.00;100259.69;1684939;82;20975;-46
2021/06/30 02:17:52;;;;;;;4.87;4.08;;;;;;;18.53;100.00;100267.66;1682414;83;20999;-45
2021/06/30 02:20:18;;;;;;;4.67;4.28;;;;;;;18.53;100.00;100272.55;1688248;82;21002;-44
2021/06/30 02:22:46;;;;;;;4.47;3.37;;;;;;;18.54;100.00;100271.53;1691603;82;20982;-48
2021/06/30 02:25:17;;;;;;;3.75;3.35;;;;;;;18.54;100.00;100269.34;1692950;82;20982;-43
2021/06/30 02:27:43;;;;;;;;;;;;;;;18.53;100.00;100276.59;1686713;82;21012;-42
2021/06/30 02:30:21;;;;;;;3.90;3.47;;;;;;;18.53;100.00;100277.95;1688325;83;20746;-42
2021/06/30 02:32:48;;;;;;;3.70;3.40;;;;;;;18.51;100.00;100269.64;1691449;83;20963;-46
2021/06/30 02:35:18;;;;;;;4.08;3.45;;;;;;;18.49;100.00;100274.33;1684808;82;21526;-46
2021/06/30 02:37:45;;;;;;;4.80;3.27;;;;;;;18.50;100.00;100280.09;1686508;83;20960;-46
2021/06/30 02:40:13;;;;;;;5.00;4.20;;;;;;;18.51;100.00;100277.23;1685061;82;20986;-51
2021/06/30 02:42:40;;;;;;;6.15;3.67;;;;;;;18.52;100.00;100273.55;1688177;83;21034;-45
2021/06/30 02:45:09;;;;;;;4.55;3.72;;;;;;;18.53;100.00;100278.45;1686453;83;20970;-46
2021/06/30 02:47:37;;;;;;;4.75;4.12;;;;;;;18.53;100.00;100276.59;1690587;83;21058;-44
2021/06/30 02:50:08;;;;;;;4.63;3.93;;;;;;;18.53;100.00;100281.16;1757094;80;20908;-46
2021/06/30 02:52:37;;;;;;;6.92;3.60;;;;;;;18.53;100.00;100281.16;1756415;80;21632;-46
2021/06/30 02:55:05;;;;;;;5.90;3.87;;;;;;;18.57;100.00;100287.94;1754370;79;20933;-50
2021/06/30 02:57:32;;;;;;;4.15;3.75;;;;;;;18.59;100.00;100285.95;1754395;80;20966;-49
2021/06/30 03:00:00;;;;;;;4.20;3.80;;;;;;;18.62;100.00;100286.16;1755467;80;20909;-47
2021/06/30 03:02:27;;;;;;;4.62;4.22;;;;;;;18.60;100.00;100287.17;1753638;80;21017;-45
2021/06/30 03:04:53;;;;;;;5.08;3.62;;;;;;;18.62;100.00;100289.70;1744619;80;21024;-47
2021/06/30 03:07:21;;;;;;;8.90;4.62;;;;;;;18.63;100.00;100287.38;1742643;80;20960;-46
2021/06/30 03:09:48;;;;;;;5.37;3.87;;;;;;;18.68;100.00;100282.89;1747162;80;20964;-43
2021/06/30 03:12:14;;;;;;;4.42;4.03;;;;;;;18.70;100.00;100285.80;1748002;79;21428;-43
2021/06/30 03:14:43;;;;;;;43.63;39.23;;;;;;;18.73;100.00;100289.55;1753386;80;20941;-44
2021/06/30 03:17:10;;;;;;;28.65;25.68;;;;;;;18.77;100.00;100282.90;1750457;80;20968;-44
2021/06/30 03:19:37;;;;;;;14.63;13.13;;;;;;;18.82;100.00;100286.48;1747236;79;20972;-45
2021/06/30 03:22:04;;;;;;;7.17;6.47;;;;;;;18.86;100.00;100293.80;1747794;80;21415;-45
2021/06/30 03:24:30;;;;;;;5.85;5.05;;;;;;;18.88;100.00;100292.66;1763935;80;20929;-48
2021/06/30 03:26:57;;;;;;;5.58;4.97;;;;;;;18.92;100.00;100298.61;1753252;80;20932;-44
2021/06/30 03:29:24;;;;;;;5.30;4.72;;;;;;;18.96;100.00;100290.06;1743953;80;21550;-45
2021/06/30 03:31:51;;;;;;;4.37;3.98;;;;;;;19.01;100.00;100290.47;1749352;79;21480;-44
2021/06/30 03:34:17;;;;;;;5.45;4.50;;;;;;;19.05;100.00;100293.73;1744361;80;20928;-46
2021/06/30 03:36:44;;;;;;;5.45;4.72;;;;;;;19.08;100.00;100290.73;1747541;80;21277;-47
2021/06/30 03:39:10;;;;;;;4.87;4.10;;;;;;;19.15;100.00;100290.97;1744595;80;20945;-45
2021/06/30 03:41:37;;;;;;;5.97;4.67;;;;;;;19.20;100.00;100292.72;1748735;80;21464;-46
2021/06/30 03:44:04;;;;;;;5.05;4.08;;;;;;;19.23;100.00;100291.94;1745145;79;20953;-44
2021/06/30 03:46:32;;;;;;;6.35;4.35;;;;;;;19.27;100.00;100293.83;1746436;80;20989;-44
2021/06/30 03:48:59;;;;;;;5.30;4.80;;;;;;;19.32;100.00;100292.02;1747259;80;20980;-42
2021/06/30 03:51:25;;;;;;;4.87;4.47;;;;;;;19.36;100.00;100290.23;1748886;79;21454;-43
2021/06/30 03:53:53;;;;;;;6.50;5.65;;;;;;;19.38;100.00;100290.09;1745068;79;20913;-42
2021/06/30 03:56:24;;;;;;;5.80;5.20;;;;;;;19.36;100.00;100287.52;1743521;80;21008;-44
2021/06/30 03:58:48;;;;;;;5.47;4.92;;;;;;;19.39;100.00;100291.27;1752828;80;21024;-43
2021/06/30 04:01:16;;;;;;;5.00;4.53;;;;;;;19.45;100.00;100288.45;1748888;80;20961;-44
2021/06/30 04:03:45;;;;;;;5.35;4.80;;;;;;;19.50;100.00;100294.77;1743249;80;20941;-45
2021/06/30 04:06:11;;;;;;;5.12;4.62;;;;;;;19.54;100.00;100294.82;1758208;80;21000;-44
2021/06/30 04:08:38;;;;;;;4.97;4.47;;;;;;;19.58;100.00;100297.08;1746128;80;20964;-47
2021/06/30 04:11:04;;;;;;;5.22;4.72;;;;;;;19.63;100.00;100298.82;1750532;80;20964;-44
2021/06/30 04:13:31;;;;;;;5.10;4.60;;;;;;;19.65;100.00;100296.81;1749228;80;20968;-42
2021/06/30 04:15:57;;;;;;;4.72;4.30;;;;;;;19.68;100.00;100299.75;1751657;80;20962;-44
2021/06/30 04:18:24;;;;;;;4.85;4.45;;;;;;;19.73;100.00;100297.91;1753682;80;20937;-46
2021/06/30 04:20:52;;;;;;;6.20;4.67;;;;;;;19.79;100.00;100295.45;1761657;80;20942;-45
2021/06/30 04:23:18;;;;;;;8.00;4.90;;;;;;;19.85;100.00;100296.18;1753076;80;21353;-42
2021/06/30 04:25:47;;;;;;;4.90;4.50;;;;;;;19.91;100.00;100294.73;1746604;80;20972;-42
2021/06/30 04:28:14;;;;;;;4.55;4.15;;;;;;;19.97;100.00;100297.31;1747170;80;20965;-42
2021/06/30 04:30:43;;;;;;;5.28;4.47;;;;;;;20.02;100.00;100295.00;1751236;80;21700;-41
2021/06/30 04:33:10;;;;;;;4.67;4.17;;;;;;;20.07;100.00;100299.44;1752580;80;20945;-40
2021/06/30 04:35:36;;;;;;;5.85;4.55;;;;;;;20.12;100.00;100301.69;1760574;80;21001;-41
2021/06/30 04:38:04;;;;;;;5.60;4.45;;;;;;;20.17;100.00;100303.42;1745858;80;20961;-42
2021/06/30 04:40:31;;;;;;;4.05;3.65;;;;;;;20.21;100.00;100298.02;1745051;80;20961;-42
2021/06/30 04:42:57;;;;;;;3.83;3.42;;;;;;;20.26;100.00;100300.63;1751797;80;21488;-42
2021/06/30 04:45:24;;;;;;;4.60;4.20;;;;;;;20.31;100.00;100304.23;1751471;80;20953;-44
2021/06/30 04:47:50;;;;;;;5.37;4.65;;;;;;;20.36;100.00;100303.25;1749102;80;20992;-44
2021/06/30 04:50:17;;;;;;;4.83;4.42;;;;;;;20.41;100.00;100300.05;1752265;80;20960;-43
2021/06/30 04:52:43;;;;;;;4.70;3.83;;;;;;;20.44;100.00;100300.59;1749191;80;20964;-44
2021/06/30 04:55:10;;;;;;;4.70;4.17;;;;;;;20.50;100.00;100297.75;1755134;80;20937;-44
2021/06/30 04:57:37;;;;;;;4.30;3.90;;;;;;;20.55;100.00;100297.31;1746749;80;20988;-41
2021/06/30 05:00:06;;;;;;;5.08;3.92;;;;;;;20.59;100.00;100298.68;1757287;80;20998;-43
2021/06/30 05:02:33;;;;;;;7.03;4.53;;;;;;;20.61;100.00;100292.09;1756874;80;20945;-44
2021/06/30 05:04:59;;;;;;;6.95;3.80;;;;;;;20.65;100.00;100293.48;1747776;80;21008;-42
2021/06/30 05:07:26;;;;;;;4.25;3.85;;;;;;;20.71;100.00;100297.41;1752290;80;21480;-45
2021/06/30 05:09:54;;;;;;;5.75;3.55;;;;;;;20.74;100.00;100294.41;1744676;79;20978;-43
2021/06/30 05:12:21;;;;;;;5.97;4.12;;;;;;;20.78;100.00;100291.70;1752605;81;20980;-43
2021/06/30 05:14:48;;;;;;;4.45;4.05;;;;;;;20.82;100.00;100286.83;1747293;79;20957;-43
2021/06/30 05:17:16;;;;;;;4.58;3.80;;;;;;;20.86;100.00;100285.48;1744544;80;21452;-43
2021/06/30 05:19:42;;;;;;;5.00;4.00;;;;;;;20.88;100.00;100287.02;1746617;81;20968;-45
2021/06/30 05:22:10;;;;;;;4.22;3.80;;;;;;;20.93;100.00;100279.77;1747558;80;20949;-44
2021/06/30 05:24:37;;;;;;;4.37;3.30;;;;;;;20.98;100.00;100284.70;1750528;79;20947;-42
2021/06/30 05:27:05;;;;;;;4.58;3.90;;;;;;;21.01;100.00;100283.86;1751680;80;20972;-43
2021/06/30 05:29:32;;;;;;;6.17;5.35;;;;;;;21.07;100.00;100289.16;1750822;80;21437;-44
2021/06/30 05:31:58;;;;;;;4.78;4.37;;;;;;;21.11;100.00;100291.36;1742887;80;20973;-43
2021/06/30 05:34:25;;;;;;;4.05;3.65;;;;;;;21.15;100.00;100290.55;1751235;81;21016;-43
2021/06/30 05:36:52;;;;;;;5.08;3.52;;;;;;;21.18;100.00;100291.06;1749276;79;21004;-43
2021/06/30 05:39:20;;;;;;;3.83;3.42;;;;;;;21.22;100.00;100279.41;1748253;80;21492;-44
2021/06/30 05:41:47;;;;;;;4.10;3.80;;;;;;;21.26;100.00;100282.11;1756610;80;21412;-43
2021/06/30 05:44:14;;;;;;;4.45;3.47;;;;;;;21.30;100.00;100288.07;1743626;80;20969;-44
2021/06/30 05:46:42;;;;;;;4.22;3.42;;;;;;;21.33;100.00;100294.52;1754678;79;20968;-43
2021/06/30 05:49:10;;;;;;;3.65;2.90;;;;;;;21.36;100.00;100286.89;1756121;80;20917;-45
2021/06/30 05:51:38;;;;;;;6.42;3.52;;;;;;;21.37;100.00;100278.27;1753291;80;20941;-45
2021/06/30 05:54:05;;;;;;;4.00;2.85;;;;;;;21.40;100.00;100279.33;1756823;80;20932;-43
2021/06/30 05:56:31;;;;;;;3.70;3.08;;;;;;;21.43;100.00;100275.43;1758577;80;21475;-45
2021/06/30 05:58:58;;;;;;;3.10;2.47;;;;;;;21.46;100.00;100281.36;1743858;80;21005;-43
2021/06/30 06:01:25;;;;;;;5.40;3.60;;;;;;;21.50;100.00;100273.25;1754962;79;21004;-44
2021/06/30 06:03:51;;;;;;;4.60;3.12;;;;;;;21.54;100.00;100273.75;1757089;80;20956;-43
2021/06/30 06:06:18;;;;;;;7.40;6.50;;;;;;;21.60;100.00;100274.47;1742948;79;21024;-43
2021/06/30 06:08:44;;;;;;;10.23;5.70;;;;;;;21.64;100.00;100272.25;1750986;80;21007;-43
2021/06/30 06:11:12;;;;;;;3.95;3.50;;;;;;;21.68;100.00;100272.27;1755858;81;21004;-42
2021/06/30 06:13:44;;;;;;;3.50;3.02;;;;;;;21.70;100.00;100272.45;1749320;79;21475;-45
2021/06/30 06:16:19;;;;;;;3.05;2.75;;;;;;;21.75;100.00;100274.66;1745326;79;20972;-45
2021/06/30 06:18:48;;;;;;;6.85;3.40;;;;;;;21.81;100.00;100279.41;1753610;80;20980;-43
2021/06/30 06:21:14;;;;;;;3.40;2.92;;;;;;;21.86;100.00;100278.40;1752427;80;20945;-44
2021/06/30 06:23:41;;;;;;;6.53;3.10;;;;;;;21.90;100.00;100282.48;1756981;80;20939;-43
2021/06/30 06:26:08;;;;;;;5.15;3.12;;;;;;;21.95;100.00;100280.63;1749806;80;20973;-41
2021/06/30 06:28:35;;;;;;;4.12;2.65;;;;;;;21.99;100.00;100280.61;1746731;80;20960;-44
2021/06/30 06:31:03;;;;;;;3.12;2.70;;;;;;;22.02;100.00;100282.98;1755376;79;21427;-44
2021/06/30 06:33:30;;;;;;;3.30;2.92;;;;;;;22.06;100.00;100280.28;1743895;80;20909;-43
2021/06/30 06:35:57;;;;;;;3.67;3.27;;;;;;;22.11;100.00;100281.14;1741843;80;21075;-42
2021/06/30 06:38:23;;;;;;;4.33;2.55;;;;;;;22.15;100.00;100283.84;1717710;81;21000;-44
2021/06/30 06:40:51;;;;;;;2.67;1.87;;;;;;;22.20;100.00;100284.20;1744192;80;21039;-44
2021/06/30 06:43:18;;;;;;;2.77;2.55;;;;;;;22.23;100.00;100274.39;1748800;81;20976;-43
2021/06/30 06:45:45;;;;;;;3.58;3.00;;;;;;;22.29;100.00;100275.56;1756184;80;20984;-43
2021/06/30 06:48:12;;;;;;;4.70;3.17;;;;;;;22.33;100.00;100273.70;1746542;80;21734;-43
2021/06/30 06:50:38;;;;;;;2.83;2.52;;;;;;;22.35;100.00;100262.65;1749516;80;20969;-44
2021/06/30 06:53:05;;;;;;;2.70;2.45;;;;;;;22.38;100.00;100262.33;1748542;79;20968;-43
2021/06/30 06:55:33;;;;;;;2.87;2.58;;;;;;;22.42;100.00;100266.38;1746858;81;20968;-44
2021/06/30 06:57:59;;;;;;;3.92;3.08;;;;;;;22.45;100.00;100260.11;1749600;80;21435;-45
2021/06/30 07:00:26;;;;;;;3.42;3.05;;;;;;;22.49;100.00;100266.03;1750804;79;20960;-45
2021/06/30 07:02:53;;;;;;;2.70;2.35;;;;;;;22.53;100.00;100259.73;1749553;80;20960;-45
2021/06/30 07:05:19;;;;;;;3.10;2.80;;;;;;;22.57;100.00;100251.59;1748982;80;20968;-43
2021/06/30 07:07:47;;;;;;;5.85;3.83;;;;;;;22.61;100.00;100261.94;1744720;81;20968;-42
2021/06/30 07:10:14;;;;;;;3.95;3.42;;;;;;;22.65;100.00;100263.30;1724882;81;21471;-46
2021/06/30 07:12:40;;;;;;;3.70;3.10;;;;;;;22.69;100.00;100259.20;1722626;82;20972;-45
2021/06/30 07:15:11;;;;;;;3.42;3.12;;;;;;;22.74;100.00;100260.04;1724638;81;20951;-45
2021/06/30 07:17:39;;;;;;;3.62;3.33;;;;;;;22.80;100.00;100258.48;1730687;81;20968;-48
2021/06/30 07:20:08;;;;;;;4.05;2.72;;;;;;;22.85;100.00;100256.09;1722604;81;20976;-44
2021/06/30 07:22:35;;;;;;;6.17;3.55;;;;;;;22.89;100.00;100255.58;1724881;81;21004;-43
2021/06/30 07:25:04;;;;;;;4.08;2.87;;;;;;;22.95;100.00;100260.81;1724564;81;20979;-45
2021/06/30 07:27:30;;;;;;;3.20;2.85;;;;;;;23.02;100.00;100255.56;1732677;82;20988;-45
2021/06/30 07:29:57;;;;;;;3.75;3.27;;;;;;;23.07;100.00;100254.01;1729169;81;20932;-44
2021/06/30 07:32:24;;;;;;;4.65;3.40;;;;;;;23.14;100.00;100252.80;1729563;82;21501;-43
2021/06/30 07:34:50;;;;;;;3.52;2.90;;;;;;;23.19;100.00;100253.12;1734282;81;20924;-43
2021/06/30 07:37:17;;;;;;;3.30;2.92;;;;;;;23.26;100.00;100263.63;1734164;82;21558;-42
2021/06/30 07:39:46;;;;;;;3.27;2.83;;;;;;;23.33;100.00;100264.61;1727575;81;20987;-45
2021/06/30 07:42:14;;;;;;;3.83;3.00;;;;;;;23.41;100.00;100261.48;1728894;81;20957;-46
2021/06/30 07:44:43;;;;;;;3.95;2.75;;;;;;;23.46;100.00;100260.44;1717848;81;20980;-46
2021/06/30 07:47:10;;;;;;;3.77;2.83;;;;;;;23.52;100.00;100259.74;1727728;81;21487;-46
2021/06/30 07:49:37;;;;;;;4.17;3.70;;;;;;;23.59;100.00;100259.89;1726929;81;20968;-45
2021/06/30 07:52:04;;;;;;;3.20;2.62;;;;;;;23.67;100.00;100259.83;1725914;81;20972;-45
2021/06/30 07:54:33;;;;;;;4.65;3.52;;;;;;;23.72;100.00;100254.69;1706945;82;20960;-45
2021/06/30 07:57:00;;;;;;;3.25;2.67;;;;;;;23.78;100.00;100249.90;1729576;81;20995;-46
2021/06/30 07:59:27;;;;;;;3.45;2.95;;;;;;;23.84;100.00;100248.32;1720322;82;21011;-47
2021/06/30 08:01:54;;;;;;;3.05;2.47;;;;;;;23.90;100.00;100252.53;1724505;82;20952;-43
2021/06/30 08:04:20;;;;;;;4.30;3.05;;;;;;;23.96;100.00;100252.31;1729252;82;21490;-45
2021/06/30 08:06:49;;;;;;;4.70;2.95;;;;;;;24.01;100.00;100246.33;1728997;81;20996;-45
2021/06/30 08:09:16;;;;;;;3.33;2.47;;;;;;;24.07;100.00;100255.14;1730075;81;20949;-44
2021/06/30 08:11:44;;;;;;;4.33;3.65;;;;;;;24.10;100.00;100250.69;1724847;82;21472;-45
2021/06/30 08:14:11;;;;;;;3.05;2.75;;;;;;;24.15;100.00;100251.82;1736485;81;20932;-45
2021/06/30 08:16:40;;;;;;;4.08;2.62;;;;;;;24.19;99.18;100247.72;1732202;81;20957;-46
2021/06/30 08:19:08;;;;;;;2.62;2.40;;;;;;;24.24;98.14;100253.98;1728465;82;20972;-45
2021/06/30 08:21:36;;;;;;;3.80;2.35;;;;;;;24.28;98.35;100253.92;1722930;82;21011;-46
2021/06/30 08:24:04;;;;;;;4.22;2.65;;;;;;;24.32;98.32;100254.41;1720901;81;21357;-45
2021/06/30 08:26:31;;;;;;;3.52;2.05;;;;;;;24.35;96.94;100258.13;1721439;81;20964;-44
2021/06/30 08:28:58;;;;;;;3.25;2.55;;;;;;;24.40;96.81;100252.97;1724168;81;20983;-53
2021/06/30 08:31:25;;;;;;;2.77;2.40;;;;;;;24.45;96.05;100252.41;1731639;81;21479;-49
2021/06/30 08:33:52;;;;;;;3.72;2.22;;;;;;;24.49;95.79;100256.47;1731426;81;20940;-49
2021/06/30 08:36:18;;;;;;;3.92;2.33;;;;;;;24.54;93.97;100250.79;1732988;81;21019;-52
2021/06/30 08:38:45;;;;;;;2.85;2.55;;;;;;;24.57;92.97;100249.60;1738127;81;20920;-52
2021/06/30 08:41:12;;;;;;;3.62;2.80;;;;;;;24.60;91.04;100253.31;1729617;81;21338;-47
2021/06/30 08:43:39;;;;;;;3.35;2.52;;;;;;;24.64;94.31;100257.34;1735610;81;20936;-51
2021/06/30 08:46:07;;;;;;;1.85;1.75;;;;;;;24.68;95.01;100256.46;1725246;81;21008;-49
2021/06/30 08:48:35;;;;;;;4.45;3.95;;;;;;;24.70;92.37;100257.97;1726233;82;21506;-51
2021/06/30 08:51:03;;;;;;;6.25;4.10;;;;;;;24.75;92.26;100258.25;1725809;81;20972;-49
2021/06/30 08:53:31;;;;;;;3.17;2.62;;;;;;;24.78;89.83;100252.94;1731414;81;20932;-46
2021/06/30 08:55:58;;;;;;;2.75;2.17;;;;;;;24.82;87.39;100252.88;1723888;82;21972;-51
2021/06/30 08:58:24;;;;;;;11.40;4.62;;;;;;;24.85;85.00;100244.34;1730425;81;20928;-50
2021/06/30 09:00:51;;;;;;;5.00;2.12;;;;;;;24.90;88.60;100250.60;1730486;81;20956;-44
2021/06/30 09:03:19;;;;;;;5.10;3.08;;;;;;;24.96;87.58;100248.47;1728699;82;20936;-42
2021/06/30 09:08:48;;;;;;;4.70;2.77;;;;;;;25.06;86.70;100246.30;1730286;80;20984;-44
2021/06/30 09:11:16;;;;;;;2.58;2.27;;;;;;;25.12;88.16;100250.98;1730814;81;21573;-42
2021/06/30 09:13:45;;;;;;;3.33;2.10;;;;;;;25.18;85.75;100249.42;1728134;81;21243;-44
2021/06/30 09:16:11;;;;;;;2.80;2.02;;;;;;;25.23;84.79;100245.09;1718419;82;20956;-44
2021/06/30 09:18:41;;;;;;;2.87;2.10;;;;;;;25.29;90.56;100248.09;1724402;81;20953;-43
2021/06/30 09:21:29;;;;;;;3.22;2.52;;;;;;;25.32;84.52;100244.97;1722611;81;20932;-41
2021/06/30 09:24:03;;;;;;;7.72;2.85;;;;;;;25.37;85.99;100234.33;1723817;81;20984;-42
2021/06/30 09:26:32;;;;;;;2.35;1.90;;;;;;;25.42;87.83;100224.52;1723418;81;20960;-41
2021/06/30 09:29:09;;;;;;;2.55;2.35;;;;;;;25.48;89.27;100226.49;1731394;81;21000;-43
2021/06/30 09:31:37;;;;;;;3.37;2.12;;;;;;;25.54;84.15;100228.95;1729365;82;21016;-43
2021/06/30 09:34:04;;;;;;;2.60;2.33;;;;;;;25.60;85.80;100230.94;1723347;81;21487;-45
2021/06/30 09:36:46;;;;;;;4.00;2.47;;;;;;;25.67;84.78;100220.06;1723307;82;20991;-45
2021/06/30 09:39:13;;;;;;;3.50;2.72;;;;;;;25.73;83.00;100217.94;1724398;81;20936;-48
2021/06/30 09:41:43;;;;;;;3.15;2.42;;;;;;;25.80;84.87;100220.19;1723837;81;20956;-46
2021/06/30 09:44:11;;;;;;;4.00;2.55;;;;;;;25.88;88.19;100222.84;1728419;82;20944;-46
2021/06/30 09:46:40;;;;;;;2.87;2.00;;;;;;;25.95;89.12;100220.68;1731769;82;20973;-46
2021/06/30 09:49:15;;;;;;;3.77;2.20;;;;;;;26.02;88.35;100214.76;1730177;81;20940;-46
2021/06/30 09:51:43;;;;;;;3.87;2.33;;;;;;;26.06;84.62;100206.51;1737495;81;20972;-44
2021/06/30 09:54:12;;;;;;;4.15;2.55;;;;;;;26.10;81.67;100207.25;1731747;81;21415;-44
2021/06/30 09:56:39;;;;;;;2.17;1.92;;;;;;;26.16;81.44;100203.41;1734373;81;20976;-45
2021/06/30 09:59:17;;;;;;;4.00;2.22;;;;;;;26.22;82.32;100196.64;1731636;82;20912;-41
2021/06/30 10:01:46;;;;;;;4.65;2.22;;;;;;;26.29;87.14;100199.44;1732297;82;20921;-44
2021/06/30 10:04:32;;;;;;;2.55;2.33;;;;;;;26.33;80.26;100197.97;1728165;81;20924;-43
2021/06/30 10:07:10;;;;;;;3.75;2.30;;;;;;;26.37;81.63;100195.70;1730341;81;20928;-43
2021/06/30 10:09:36;;;;;;;4.40;2.47;;;;;;;26.43;83.70;100195.73;1728884;80;20968;-42
2021/06/30 10:12:07;;;;;;;6.00;1.98;;;;;;;26.46;80.57;100190.38;1736506;82;20964;-42
2021/06/30 10:14:36;;;;;;;4.15;2.20;;;;;;;26.48;72.65;100195.97;1725993;82;20928;-42
2021/06/30 10:17:03;;;;;;;4.85;2.25;;;;;;;26.48;67.05;100189.66;1722981;81;21439;-42
2021/06/30 10:19:30;;;;;;;3.00;2.12;;;;;;;26.46;65.34;100192.62;1729749;81;21408;-43
2021/06/30 10:21:57;;;;;;;2.77;1.90;;;;;;;26.45;69.83;100193.64;1731019;81;21381;-43
2021/06/30 10:24:24;;;;;;;5.60;2.42;;;;;;;26.45;73.64;100190.91;1727131;81;20941;-45
2021/06/30 10:26:51;;;;;;;4.25;2.50;;;;;;;26.51;79.44;100193.36;1722609;81;20980;-44
2021/06/30 10:29:18;;;;;;;6.03;4.10;;;;;;;26.57;79.04;100194.50;1726753;81;20944;-46
2021/06/30 10:31:48;;;;;;;5.05;2.27;;;;;;;26.63;80.70;100192.31;1732137;82;20921;-46
2021/06/30 10:34:14;;;;;;;4.85;2.10;;;;;;;26.70;81.06;100194.04;1726240;81;20990;-44
2021/06/30 10:36:53;;;;;;;2.65;2.12;;;;;;;26.77;82.65;100189.98;1734895;81;21075;-45
2021/06/30 10:39:40;;;;;;;1.82;1.60;;;;;;;26.82;73.46;100187.48;1737310;81;21459;-43
2021/06/30 10:42:31;;;;;;;1.82;1.60;;;;;;;26.83;62.67;100187.80;1736586;82;20956;-43
2021/06/30 10:45:00;;;;;;;5.15;2.05;;;;;;;26.82;60.10;100183.38;1727720;81;21790;-43
2021/06/30 10:47:33;;;;;;;9.48;2.70;;;;;;;26.80;64.22;100183.27;1731596;81;21507;-42
2021/06/30 10:50:26;;;;;;;10.88;2.98;;;;;;;26.76;64.80;100185.05;1730118;81;20988;-41
2021/06/30 10:52:56;;;;;;;4.80;1.92;;;;;;;26.71;65.15;100188.05;1735390;81;20996;-41
2021/06/30 10:55:40;;;;;;;6.95;2.25;;;;;;;26.69;68.16;100183.33;1733918;81;21423;-45
2021/06/30 10:58:22;;;;;;;4.22;1.87;;;;;;;26.69;68.65;100182.80;1731537;82;21475;-44
2021/06/30 11:00:53;;;;;;;2.75;2.45;;;;;;;26.75;68.57;100177.03;1727186;81;21431;-42
2021/06/30 11:03:45;;;;;;;5.60;2.10;;;;;;;26.80;67.76;100167.70;1737287;81;20972;-43
2021/06/30 11:06:29;;;;;;;7.95;2.62;;;;;;;26.85;65.29;100156.99;1733000;81;20968;-41
2021/06/30 11:09:04;;;;;;;8.58;2.20;;;;;;;26.89;60.63;100147.88;1723312;81;21019;-44
2021/06/30 11:11:37;;;;;;;2.52;2.00;;;;;;;26.93;62.05;100144.50;1731761;81;21749;-43
2021/06/30 11:14:13;;;;;;;1.75;1.65;;;;;;;27.01;61.21;100151.68;1725810;81;20984;-44
2021/06/30 11:16:49;;;;;;;4.60;1.40;;;;;;;27.08;57.76;100136.67;1723385;81;20996;-44
2021/06/30 11:19:23;;;;;;;1.60;1.50;;;;;;;27.15;54.10;100139.74;1727346;82;20988;-44
2021/06/30 11:22:06;;;;;;;7.25;1.72;;;;;;;27.23;52.71;100136.00;1731256;82;20960;-42
2021/06/30 11:24:43;;;;;;;8.43;2.47;;;;;;;27.28;50.90;100130.75;1728404;81;21012;-43
2021/06/30 11:27:23;;;;;;;2.75;1.80;;;;;;;27.31;47.72;100129.49;1722061;82;20925;-43
2021/06/30 11:29:58;;;;;;;2.08;1.67;;;;;;;27.35;50.91;100125.30;1731212;81;21459;-42